Time;durP1;ratioP1;P1;durP2;ratioP2;P2;SDS_P1;SDS_P2;PMS_P1;PMS_P2;Temp;Humidity;BMP_temperature;BMP_pressure;BME280_temperature;BME280_humidity;BME280_pressure;Samples;Min_cycle;Max_cycle;Signal;HPM_P1;HPM_P2
2021/12/13 00:00:56;;;;;;;3.58;1.90;;;;;;;-0.94;82.37;97513.16;5017446;28;20060;-74
2021/12/13 00:03:32;;;;;;;3.60;1.95;;;;;;;-1.19;83.23;97493.88;5017557;28;20049;-74
2021/12/13 00:06:09;;;;;;;2.28;1.70;;;;;;;-1.39;85.54;97520.59;5017399;28;20231;-74
2021/12/13 00:08:43;;;;;;;1.92;1.30;;;;;;;-1.38;86.58;97529.13;5017436;28;20232;-72
2021/12/13 00:11:21;;;;;;;1.63;1.27;;;;;;;-1.49;88.21;97485.72;5017265;28;20096;-72
2021/12/13 00:13:55;;;;;;;3.05;1.80;;;;;;;-1.44;89.26;97563.34;5017334;28;20092;-73
2021/12/13 00:16:29;;;;;;;3.42;1.50;;;;;;;-1.61;89.60;97560.13;5017595;28;20252;-71
2021/12/13 00:19:03;;;;;;;2.88;1.90;;;;;;;-1.64;90.11;97567.84;4991852;28;20113;-70
2021/12/13 00:21:37;;;;;;;3.03;1.70;;;;;;;-1.66;90.60;97569.59;4980902;28;20138;-71
2021/12/13 00:24:12;;;;;;;6.30;2.03;;;;;;;-1.67;90.40;97585.78;5017377;28;20053;-73
2021/12/13 00:26:48;;;;;;;2.03;1.50;;;;;;;-1.69;90.49;97595.22;5021133;28;20053;-74
2021/12/13 00:29:21;;;;;;;3.45;2.15;;;;;;;-1.66;91.18;97620.78;5020856;28;20141;-71
2021/12/13 00:32:01;;;;;;;5.32;1.90;;;;;;;-1.71;92.01;97612.31;5020795;28;20054;-75
2021/12/13 00:34:40;;;;;;;3.80;1.90;;;;;;;-1.70;91.85;97626.78;5020934;28;20058;-72
2021/12/13 00:37:16;;;;;;;3.72;1.30;;;;;;;-1.78;92.51;97632.84;5020969;28;20394;-71
2021/12/13 00:39:52;;;;;;;2.45;1.40;;;;;;;-2.04;91.52;97665.50;5028368;28;20128;-72
2021/12/13 00:42:29;;;;;;;6.07;1.70;;;;;;;-2.29;91.33;97652.88;5029562;28;20062;-74
2021/12/13 00:45:03;;;;;;;4.93;1.90;;;;;;;-2.56;91.60;97665.84;5021018;28;20050;-73
2021/12/13 00:47:36;;;;;;;7.07;1.95;;;;;;;-2.65;91.75;97682.91;5035258;28;20275;-75
2021/12/13 00:50:12;;;;;;;3.17;1.80;;;;;;;-2.75;91.96;97683.81;5037421;28;20328;-75
2021/12/13 00:52:44;;;;;;;6.60;2.80;;;;;;;-2.83;92.11;97683.00;5036762;28;20050;-73
2021/12/13 00:55:16;;;;;;;7.50;1.90;;;;;;;-2.86;92.04;97703.47;5039437;28;20080;-74
2021/12/13 00:57:51;;;;;;;3.92;1.70;;;;;;;-2.93;91.88;97686.47;5037478;28;20060;-73
2021/12/13 01:00:28;;;;;;;6.10;2.13;;;;;;;-2.98;92.04;97688.19;5039407;28;20053;-74
2021/12/13 01:03:03;;;;;;;3.38;1.80;;;;;;;-3.01;92.07;97673.72;5040195;28;20053;-74
2021/12/13 01:05:59;;;;;;;2.10;1.65;;;;;;;-2.98;91.98;97719.69;5040140;28;20065;-72
2021/12/13 01:09:12;;;;;;;7.05;2.47;;;;;;;-2.90;92.32;97737.56;5002924;28;20049;-74
2021/12/13 01:11:53;;;;;;;9.15;3.25;;;;;;;-2.92;92.11;97729.03;5036209;28;20112;-71
2021/12/13 01:14:57;;;;;;;6.15;2.15;;;;;;;-2.98;91.82;97722.25;5036133;28;20056;-72
2021/12/13 01:17:51;;;;;;;4.32;2.45;;;;;;;-3.04;91.58;97738.47;5035972;28;20351;-72
2021/12/13 01:20:29;;;;;;;7.28;2.30;;;;;;;-3.03;91.14;97752.91;5035688;28;20061;-73
2021/12/13 01:23:05;;;;;;;9.50;2.35;;;;;;;-3.05;90.97;97764.84;5036461;28;20283;-72
2021/12/13 01:25:42;;;;;;;3.55;1.80;;;;;;;-3.07;90.95;97771.69;5036079;28;20352;-74
2021/12/13 01:28:27;;;;;;;6.43;2.10;;;;;;;-3.14;90.64;97769.16;5035543;28;20063;-72
2021/12/13 01:31:02;;;;;;;5.20;1.90;;;;;;;-3.17;90.13;97780.22;5035715;28;20060;-74
2021/12/13 01:33:34;;;;;;;3.70;1.80;;;;;;;-3.18;89.56;97783.59;5035575;28;20248;-72
2021/12/13 01:36:09;;;;;;;3.75;2.22;;;;;;;-3.16;89.53;97781.91;5035754;28;20037;-72
2021/12/13 01:38:45;;;;;;;2.35;1.80;;;;;;;-3.07;89.55;97804.88;5035849;28;20049;-75
2021/12/13 01:41:20;;;;;;;2.60;1.70;;;;;;;-3.04;88.62;97801.47;5035774;28;20705;-77
2021/12/13 01:43:54;;;;;;;2.58;1.70;;;;;;;-3.03;88.14;97798.91;5035893;28;20056;-76
2021/12/13 01:46:27;;;;;;;4.63;2.28;;;;;;;-3.01;88.29;97815.94;5035773;28;20041;-75
2021/12/13 01:49:00;;;;;;;2.22;1.77;;;;;;;-2.99;87.77;97824.47;5036116;28;20053;-73
2021/12/13 01:51:33;;;;;;;2.30;1.70;;;;;;;-2.97;87.55;97848.28;5036033;28;20059;-73
2021/12/13 01:54:09;;;;;;;1.73;1.48;;;;;;;-3.09;87.40;97819.38;5035478;28;20415;-77
2021/12/13 01:56:46;;;;;;;4.38;1.80;;;;;;;-3.15;87.14;97827.00;5035577;28;20064;-77
2021/12/13 01:59:43;;;;;;;3.75;1.73;;;;;;;-3.13;87.16;97838.09;5035444;28;20108;-77
2021/12/13 02:02:31;;;;;;;2.90;1.63;;;;;;;-3.27;87.19;97829.56;5035439;28;20201;-75
2021/12/13 02:05:08;;;;;;;3.25;1.80;;;;;;;-3.16;87.06;97848.31;5035208;28;20485;-71
2021/12/13 02:07:47;;;;;;;2.53;1.50;;;;;;;-3.07;86.84;97855.09;5034710;28;20053;-73
2021/12/13 02:10:23;;;;;;;1.88;1.50;;;;;;;-3.04;86.32;97863.63;5035587;28;20679;-77
2021/12/13 02:12:58;;;;;;;1.30;1.20;;;;;;;-2.98;86.34;97872.16;5035304;28;20636;-72
2021/12/13 02:18:31;;;;;;;1.95;1.70;;;;;;;-2.98;86.42;97856.81;5034736;28;20053;-77
2021/12/13 02:21:11;;;;;;;5.20;2.05;;;;;;;-2.78;86.14;97872.97;5035296;28;20041;-76
2021/12/13 02:23:46;;;;;;;;;;;;;;;-2.71;85.64;97882.34;5035524;28;20049;-77
2021/12/13 02:26:17;;;;;;;1.70;1.60;;;;;;;-2.73;85.32;97876.38;5035061;28;19924;-75
2021/12/13 02:28:50;;;;;;;2.30;1.80;;;;;;;-2.76;85.45;97889.16;5035031;28;20049;-76
2021/12/13 02:31:25;;;;;;;2.35;1.70;;;;;;;-2.77;85.66;97892.59;5035068;28;20045;-74
2021/12/13 02:33:59;;;;;;;2.55;2.28;;;;;;;-2.81;85.65;97895.97;5034607;28;20077;-77
2021/12/13 02:36:32;;;;;;;2.00;1.80;;;;;;;-2.86;85.30;97887.47;5034823;28;20080;-74
2021/12/13 02:39:08;;;;;;;2.85;2.17;;;;;;;-2.81;85.33;97901.09;5034059;28;20339;-76
2021/12/13 02:41:40;;;;;;;2.10;1.75;;;;;;;-2.86;85.17;97924.09;5034729;28;20053;-73
2021/12/13 02:44:18;;;;;;;1.95;1.70;;;;;;;-2.91;85.65;97894.28;5034693;28;20057;-74
2021/12/13 02:46:49;;;;;;;2.38;1.90;;;;;;;-2.97;85.38;97896.84;5034705;28;20119;-73
2021/12/13 02:49:21;;;;;;;2.53;1.80;;;;;;;-2.89;85.31;97902.81;5034518;28;20053;-76
2021/12/13 02:51:55;;;;;;;3.70;2.30;;;;;;;-2.86;84.92;97923.25;5034369;28;20375;-72
2021/12/13 02:54:32;;;;;;;2.17;1.77;;;;;;;-2.78;83.84;97934.31;5034055;28;20076;-76
2021/12/13 02:57:06;;;;;;;3.13;2.03;;;;;;;-2.71;83.29;97927.50;5034243;28;20045;-73
2021/12/13 02:59:40;;;;;;;2.08;1.83;;;;;;;-2.66;83.29;97947.09;5034706;28;20569;-75
2021/12/13 03:02:22;;;;;;;3.33;1.90;;;;;;;-2.87;82.50;97916.41;5034277;28;20403;-75
2021/12/13 03:05:00;;;;;;;3.03;2.10;;;;;;;-2.68;83.28;97953.91;5034440;28;20061;-73
2021/12/13 03:07:35;;;;;;;1.60;1.48;;;;;;;-2.64;82.41;97958.16;5034476;28;20046;-74
2021/12/13 03:10:13;;;;;;;2.28;1.90;;;;;;;-2.65;82.03;97963.25;5034352;28;20047;-71
2021/12/13 03:12:44;;;;;;;2.92;2.33;;;;;;;-2.64;81.27;97953.06;5034225;28;20064;-75
2021/12/13 03:15:19;;;;;;;4.13;1.92;;;;;;;-2.59;81.02;97972.66;5034224;28;20055;-74
2021/12/13 03:17:54;;;;;;;3.33;2.13;;;;;;;-2.73;79.79;97953.06;5034037;28;20882;-73
2021/12/13 03:20:44;;;;;;;3.45;1.98;;;;;;;-2.70;79.03;97968.38;5034190;28;20290;-74
2021/12/13 03:23:48;;;;;;;2.50;2.00;;;;;;;-2.66;79.97;97987.97;5033895;28;20217;-75
2021/12/13 03:26:39;;;;;;;2.67;2.00;;;;;;;-2.71;nan;97989.69;5034145;28;20056;-73
2021/12/13 03:29:19;;;;;;;2.00;1.70;;;;;;;-2.80;81.89;97999.91;5033772;28;20050;-75
2021/12/13 03:31:54;;;;;;;2.50;2.20;;;;;;;-2.86;82.59;97999.91;5034170;28;20050;-72
2021/12/13 03:34:28;;;;;;;2.85;2.13;;;;;;;-2.78;83.51;98003.31;5034052;28;20064;-75
2021/12/13 03:37:02;;;;;;;3.65;2.25;;;;;;;-2.80;83.76;98005.00;5034161;28;20128;-74
2021/12/13 03:39:40;;;;;;;8.82;3.72;;;;;;;-2.77;83.75;98002.47;5033959;28;20113;-72
2021/12/13 03:42:17;;;;;;;5.82;3.40;;;;;;;-2.74;83.68;97986.31;5033599;28;20095;-75
2021/12/13 03:44:51;;;;;;;8.20;3.90;;;;;;;-2.54;83.24;98005.03;5033758;28;20450;-74
2021/12/13 03:47:24;;;;;;;4.03;2.47;;;;;;;-2.53;82.64;98003.31;5033531;28;20363;-75
2021/12/13 03:49:58;;;;;;;4.93;2.83;;;;;;;-2.45;82.08;98011.84;5032307;28;20363;-70
2021/12/13 03:52:32;;;;;;;5.82;2.55;;;;;;;-2.35;81.52;98018.66;5032491;28;20041;-72
2021/12/13 03:55:06;;;;;;;3.10;2.30;;;;;;;-2.33;80.86;98009.28;5033128;28;20363;-73
2021/12/13 03:57:44;;;;;;;4.00;2.50;;;;;;;-2.19;80.18;98020.34;5033687;28;20517;-69
2021/12/13 04:00:20;;;;;;;6.50;3.10;;;;;;;-2.12;79.95;98016.09;5035498;28;20041;-73
2021/12/13 04:02:51;;;;;;;2.47;2.00;;;;;;;-2.05;78.56;98022.88;5037300;28;21218;-73
2021/12/13 04:05:26;;;;;;;2.72;1.92;;;;;;;-2.03;78.18;98022.88;5037714;28;20739;-74
2021/12/13 04:08:02;;;;;;;2.88;2.20;;;;;;;-2.08;78.60;98016.91;5037763;28;20275;-74
2021/12/13 04:10:35;;;;;;;3.22;2.38;;;;;;;-1.95;77.43;98039.06;5037438;28;20059;-73
2021/12/13 04:13:13;;;;;;;4.70;2.70;;;;;;;-1.98;76.85;98036.50;5038023;28;20045;-74
2021/12/13 04:15:57;;;;;;;2.88;2.05;;;;;;;-1.89;76.62;98044.19;5037763;28;20049;-74
2021/12/13 04:19:06;;;;;;;8.93;4.22;;;;;;;-1.85;73.84;98040.72;5037442;28;20141;-74
2021/12/13 04:21:41;;;;;;;8.75;4.40;;;;;;;-1.91;73.60;98066.34;5037025;28;20057;-74
2021/12/13 04:24:16;;;;;;;6.70;4.10;;;;;;;-1.94;73.20;98039.94;5037116;28;20063;-73
2021/12/13 04:26:52;;;;;;;4.78;3.22;;;;;;;-1.94;71.51;98056.13;5037911;28;20057;-70
2021/12/13 04:29:28;;;;;;;3.85;2.47;;;;;;;-1.94;72.19;98051.00;5037617;28;20049;-74
2021/12/13 04:32:00;;;;;;;3.00;1.90;;;;;;;-1.93;71.96;98067.22;5037332;28;20053;-73
2021/12/13 04:34:32;;;;;;;2.35;1.58;;;;;;;-1.80;71.49;98089.38;5037092;28;20053;-74
2021/12/13 04:37:16;;;;;;;2.90;1.30;;;;;;;-1.84;69.63;98083.41;5037264;28;20050;-74
2021/12/13 04:39:52;;;;;;;2.75;2.00;;;;;;;-1.79;71.00;98096.22;5037156;28;20056;-75
2021/12/13 04:42:25;;;;;;;3.83;1.95;;;;;;;-1.85;70.62;98086.81;5037181;28;20057;-71
2021/12/13 04:45:02;;;;;;;2.40;1.70;;;;;;;-1.79;70.26;98102.19;5036782;28;20376;-70
2021/12/13 04:47:37;;;;;;;3.25;1.80;;;;;;;-1.83;71.01;98100.47;5036904;28;20328;-75
2021/12/13 04:50:13;;;;;;;2.50;1.83;;;;;;;-1.75;71.62;98113.25;5036493;28;20104;-76
2021/12/13 04:52:46;;;;;;;2.22;1.65;;;;;;;-1.79;71.70;98122.66;5036904;28;20095;-69
2021/12/13 04:55:20;;;;;;;2.17;1.60;;;;;;;-1.84;71.50;98129.50;5036433;28;20232;-73
2021/12/13 04:57:55;;;;;;;2.83;1.95;;;;;;;-1.91;71.77;98122.66;5036504;28;20041;-72
2021/12/13 05:00:34;;;;;;;1.33;1.23;;;;;;;-1.89;71.41;98141.44;5036258;28;20213;-76
2021/12/13 05:03:08;;;;;;;2.60;1.15;;;;;;;-1.93;71.79;98144.84;5036946;28;20228;-74
2021/12/13 05:05:41;;;;;;;4.25;2.30;;;;;;;-1.88;71.88;98158.50;5036365;28;20088;-73
2021/12/13 05:08:15;;;;;;;1.58;1.48;;;;;;;-2.12;71.86;98117.53;5036484;28;20053;-72
2021/12/13 05:10:48;;;;;;;7.53;3.67;;;;;;;-1.89;72.48;98166.19;5035882;28;20049;-75
2021/12/13 05:13:22;;;;;;;15.73;6.53;;;;;;;-1.97;72.43;98153.41;5036175;28;20053;-75
2021/12/13 05:15:58;;;;;;;3.22;2.20;;;;;;;-1.88;72.89;98184.09;5036355;28;20059;-73
2021/12/13 05:18:32;;;;;;;1.88;1.63;;;;;;;-2.02;73.40;98165.31;5036164;28;21016;-71
2021/12/13 05:21:08;;;;;;;1.25;1.15;;;;;;;-2.03;74.17;98189.22;5036234;28;20042;-74
2021/12/13 05:23:48;;;;;;;1.60;1.50;;;;;;;-2.11;75.50;98196.88;5036164;28;20053;-73
2021/12/13 05:26:31;;;;;;;;;;;;;;;-2.12;76.68;98212.22;5036531;28;20049;-73
2021/12/13 05:29:02;;;;;;;3.28;1.40;;;;;;;-2.21;77.59;98211.38;5036265;28;19925;-73
2021/12/13 05:31:35;;;;;;;1.73;1.38;;;;;;;-2.22;78.13;98214.78;5035554;28;20053;-74
2021/12/13 05:34:08;;;;;;;2.22;1.30;;;;;;;-2.26;79.20;98222.44;5034460;28;20239;-73
2021/12/13 05:36:39;;;;;;;2.50;1.30;;;;;;;-2.44;79.66;98218.16;5036196;28;20049;-76
2021/12/13 05:39:14;;;;;;;1.25;1.10;;;;;;;-2.39;80.12;98234.34;5035162;28;20048;-75
2021/12/13 05:41:54;;;;;;;1.02;1.02;;;;;;;-2.42;81.01;98236.88;5000593;28;20052;-74
2021/12/13 05:44:27;;;;;;;2.40;1.52;;;;;;;-2.44;81.20;98241.16;5035504;28;20060;-76
2021/12/13 05:47:01;;;;;;;3.10;1.83;;;;;;;-2.55;81.82;98235.16;5035580;28;20049;-72
2021/12/13 05:49:36;;;;;;;3.50;1.80;;;;;;;-2.46;82.19;98256.50;5035774;28;20248;-76
2021/12/13 05:52:11;;;;;;;2.90;1.92;;;;;;;-2.43;82.32;98260.75;5035642;28;20053;-73
2021/12/13 05:54:46;;;;;;;1.25;1.02;;;;;;;-2.38;82.48;98271.88;5035758;28;20052;-70
2021/12/13 05:57:20;;;;;;;3.95;1.75;;;;;;;-2.41;82.45;98280.38;5035479;28;20046;-77
2021/12/13 06:00:01;;;;;;;1.73;1.15;;;;;;;-2.45;82.90;98282.91;5035145;28;20060;-77
2021/12/13 06:03:02;;;;;;;1.65;1.33;;;;;;;-2.44;83.26;98289.75;5034947;28;20152;-74
2021/12/13 06:05:36;;;;;;;1.55;1.30;;;;;;;-2.48;83.50;98293.13;4981650;28;20065;-76
2021/12/13 06:08:12;;;;;;;2.60;1.20;;;;;;;-2.43;84.01;98312.75;5035480;28;20139;-78
2021/12/13 06:10:49;;;;;;;1.27;1.20;;;;;;;-2.48;84.47;98314.44;4982426;28;20061;-71
2021/12/13 06:13:46;;;;;;;1.33;1.23;;;;;;;-2.51;85.36;98323.81;5035279;28;20451;-78
2021/12/13 06:16:43;;;;;;;1.40;1.10;;;;;;;-2.47;85.75;98338.31;5035328;28;20363;-77
2021/12/13 06:19:28;;;;;;;1.30;1.05;;;;;;;-2.56;86.20;98338.28;5033855;28;20363;-75
2021/12/13 06:22:08;;;;;;;0.90;0.80;;;;;;;-2.54;86.28;98354.50;5034494;28;20378;-78
2021/12/13 06:24:41;;;;;;;1.63;0.90;;;;;;;-2.56;86.94;98356.19;5035141;28;20076;-73
2021/12/13 06:27:19;;;;;;;3.42;1.00;;;;;;;-2.64;87.46;98354.44;5035365;28;20057;-75
2021/12/13 06:30:13;;;;;;;1.05;0.95;;;;;;;-2.62;87.14;98368.09;5035166;28;20320;-74
2021/12/13 06:32:50;;;;;;;1.10;1.00;;;;;;;-2.64;87.25;98369.78;5032314;28;20049;-74
2021/12/13 06:35:44;;;;;;;2.00;0.82;;;;;;;-2.58;87.86;98375.78;5032935;28;20053;-75
2021/12/13 06:38:39;;;;;;;3.63;1.73;;;;;;;-2.56;88.04;98387.72;5034863;28;20483;-76
2021/12/13 06:41:15;;;;;;;11.55;4.18;;;;;;;-2.58;88.00;98394.53;5035015;28;20045;-72
2021/12/13 06:43:50;;;;;;;5.05;1.75;;;;;;;-2.61;87.81;98399.63;5034739;28;20050;-75
2021/12/13 06:46:44;;;;;;;3.28;1.63;;;;;;;-2.71;88.37;98388.47;5034574;28;20047;-77
2021/12/13 06:49:20;;;;;;;4.18;2.03;;;;;;;-2.63;88.17;98402.16;5027679;28;20041;-75
2021/12/13 06:51:56;;;;;;;2.30;1.20;;;;;;;-2.65;88.10;98403.84;5033763;28;20053;-76
2021/12/13 06:54:34;;;;;;;5.63;2.20;;;;;;;-2.62;88.14;98409.00;5033660;28;20057;-73
2021/12/13 06:57:10;;;;;;;7.85;2.55;;;;;;;-2.52;88.04;98416.72;5034859;28;20076;-75
2021/12/13 06:59:50;;;;;;;4.78;1.95;;;;;;;-2.75;88.18;98391.00;5034694;28;20048;-75
2021/12/13 07:02:23;;;;;;;10.67;3.80;;;;;;;-2.53;88.38;98438.03;5034398;28;20319;-75
2021/12/13 07:05:05;;;;;;;18.65;5.82;;;;;;;-2.51;88.28;98446.56;5033054;28;20354;-74
2021/12/13 07:07:41;;;;;;;5.63;2.60;;;;;;;-2.42;88.45;98452.59;5034141;28;20382;-72
2021/12/13 07:10:19;;;;;;;5.03;2.72;;;;;;;-2.32;87.57;98450.09;5034078;28;20049;-72
2021/12/13 07:12:54;;;;;;;7.28;3.58;;;;;;;-2.40;87.63;98444.91;5032561;28;20236;-72
2021/12/13 07:15:35;;;;;;;7.20;2.88;;;;;;;-2.13;87.74;98458.72;5033961;28;20060;-70
2021/12/13 07:18:14;;;;;;;3.35;1.58;;;;;;;-2.20;87.32;98458.72;5034050;28;20045;-73
2021/12/13 07:20:48;;;;;;;2.72;1.48;;;;;;;-2.14;86.70;98475.78;5034255;28;20056;-73
2021/12/13 07:23:21;;;;;;;8.40;4.05;;;;;;;-2.26;86.37;98468.91;5033227;28;20395;-71
2021/12/13 07:25:56;;;;;;;3.67;1.30;;;;;;;-2.19;86.26;98493.69;5034137;28;20057;-72
2021/12/13 07:28:32;;;;;;;3.63;1.17;;;;;;;-2.23;86.27;98499.59;5033916;28;20050;-73
2021/12/13 07:31:05;;;;;;;5.45;2.13;;;;;;;-2.50;86.54;98458.50;5006582;28;20061;-72
2021/12/13 07:33:40;;;;;;;5.78;1.90;;;;;;;-2.20;86.15;98515.00;5032817;28;20041;-72
2021/12/13 07:36:20;;;;;;;7.47;3.00;;;;;;;-2.25;86.40;98506.41;5033313;28;20128;-74
2021/12/13 07:38:56;;;;;;;1.55;1.10;;;;;;;-2.24;86.21;98527.75;5032535;28;20047;-74
2021/12/13 07:41:28;;;;;;;2.13;1.27;;;;;;;-2.21;86.50;98532.91;5033657;28;20048;-74
2021/12/13 07:43:59;;;;;;;1.02;0.88;;;;;;;-2.55;86.48;98481.47;5033778;28;20056;-70
2021/12/13 07:46:32;;;;;;;1.50;0.98;;;;;;;-2.29;86.53;98545.63;5033493;28;20336;-71
2021/12/13 07:49:08;;;;;;;4.25;1.75;;;;;;;-2.39;86.56;98541.28;5033932;28;20049;-71
2021/12/13 07:51:42;;;;;;;3.72;1.52;;;;;;;-2.36;87.07;98558.38;5033989;28;20045;-70
2021/12/13 07:54:18;;;;;;;8.43;3.00;;;;;;;-2.46;87.44;98552.31;5033728;28;20665;-70
2021/12/13 07:56:51;;;;;;;15.20;5.22;;;;;;;-2.40;87.07;98567.69;5033951;28;20049;-71
2021/12/13 07:59:27;;;;;;;13.60;5.00;;;;;;;-2.46;87.45;98562.56;5033765;28;20048;-73
2021/12/13 08:02:04;;;;;;;14.25;6.00;;;;;;;-2.41;87.00;98564.28;5033790;28;20539;-72
2021/12/13 08:04:47;;;;;;;5.97;3.13;;;;;;;-2.28;87.51;98580.59;5033529;28;20062;-72
2021/12/13 08:07:21;;;;;;;2.63;1.50;;;;;;;-2.29;87.04;98586.56;5033706;28;20041;-73
2021/12/13 08:09:58;;;;;;;1.20;0.90;;;;;;;-2.23;86.64;98596.84;5033581;28;20197;-74
2021/12/13 08:12:32;;;;;;;0.95;0.90;;;;;;;-2.22;86.36;98606.25;5033641;28;20685;-72
2021/12/13 08:15:14;;;;;;;4.53;2.15;;;;;;;-2.11;86.39;98611.44;5033581;28;20081;-72
2021/12/13 08:17:48;;;;;;;19.52;7.30;;;;;;;-2.13;86.42;98612.28;5033227;28;20080;-73
2021/12/13 08:20:25;;;;;;;39.25;14.65;;;;;;;-2.10;86.13;98618.25;5033191;28;20213;-70
2021/12/13 08:22:57;;;;;;;19.52;8.52;;;;;;;-2.35;85.10;98575.41;5032701;28;20061;-72
2021/12/13 08:25:32;;;;;;;9.60;5.28;;;;;;;-2.19;84.94;98608.81;5033381;28;20235;-72
2021/12/13 08:28:08;;;;;;;11.65;5.60;;;;;;;-2.08;85.15;98620.84;5032129;28;20096;-73
2021/12/13 08:30:48;;;;;;;6.53;3.15;;;;;;;-2.12;84.76;98626.75;5032816;28;20041;-73
2021/12/13 08:33:24;;;;;;;1.55;1.30;;;;;;;-2.14;84.87;98631.03;5031877;28;20079;-74
2021/12/13 08:35:58;;;;;;;3.90;1.30;;;;;;;-2.11;84.57;98648.97;5033509;28;20077;-71
2021/12/13 08:38:39;;;;;;;1.70;1.40;;;;;;;-2.14;84.92;98646.41;5032979;28;20072;-72
2021/12/13 08:41:28;;;;;;;6.22;3.47;;;;;;;-2.40;84.61;98616.28;5033316;28;20056;-74
2021/12/13 08:44:03;;;;;;;1.77;1.17;;;;;;;-2.06;84.74;98675.47;5031863;28;20088;-74
2021/12/13 08:46:40;;;;;;;1.08;0.93;;;;;;;-2.08;84.56;98674.59;5035044;28;20057;-74
2021/12/13 08:49:22;;;;;;;1.60;1.50;;;;;;;-2.04;84.46;98684.00;5034020;28;20091;-73
2021/12/13 08:52:01;;;;;;;1.67;1.20;;;;;;;-2.04;84.37;98684.00;5036236;28;20050;-74
2021/12/13 08:54:39;;;;;;;1.10;0.95;;;;;;;-2.07;83.80;98678.84;5036395;28;20108;-72
2021/12/13 08:57:30;;;;;;;2.22;1.30;;;;;;;-1.91;83.97;98716.53;5036799;28;20053;-70
2021/12/13 09:00:02;;;;;;;4.65;1.00;;;;;;;-1.97;82.89;98707.13;5035912;28;20049;-71
2021/12/13 09:02:41;;;;;;;16.58;6.05;;;;;;;-1.89;82.20;98719.13;5034796;28;20045;-74
2021/12/13 09:05:16;;;;;;;3.22;1.58;;;;;;;-1.89;81.16;98727.66;5035365;28;20057;-71
2021/12/13 09:07:52;;;;;;;4.07;1.83;;;;;;;-1.87;80.86;98733.66;5034512;28;20056;-68
2021/12/13 09:10:35;;;;;;;4.85;1.52;;;;;;;-1.85;81.08;98739.63;5033266;28;20052;-72
2021/12/13 09:13:08;;;;;;;5.18;1.50;;;;;;;-1.84;80.53;98754.16;5034136;28;20076;-70
2021/12/13 09:15:39;;;;;;;9.63;3.85;;;;;;;-1.84;81.03;98759.28;5036159;28;20244;-72
2021/12/13 09:18:18;;;;;;;4.05;2.22;;;;;;;-1.84;79.41;98766.97;5035655;28;20538;-69
2021/12/13 09:20:53;;;;;;;9.30;2.70;;;;;;;-2.14;79.17;98729.13;5035522;28;20116;-70
2021/12/13 09:23:28;;;;;;;7.53;2.35;;;;;;;-1.87;77.89;98784.84;5035529;28;20052;-71
2021/12/13 09:26:07;;;;;;;14.27;2.60;;;;;;;-1.87;77.01;98792.53;5035380;28;20061;-72
2021/12/13 09:28:46;;;;;;;5.05;1.73;;;;;;;-1.89;77.00;98801.91;5035609;28;20081;-73
2021/12/13 09:31:20;;;;;;;6.57;2.20;;;;;;;-2.15;75.67;98760.66;5036221;28;20080;-71
2021/12/13 09:33:54;;;;;;;5.05;1.80;;;;;;;-1.89;74.93;98809.59;5035785;28;20065;-73
2021/12/13 09:36:28;;;;;;;5.38;2.17;;;;;;;-1.90;74.33;98805.28;5032872;28;20375;-73
2021/12/13 09:39:04;;;;;;;10.63;2.05;;;;;;;-2.21;74.36;98769.16;5032455;28;20064;-73
2021/12/13 09:41:39;;;;;;;9.07;2.78;;;;;;;-1.92;74.60;98832.59;5035735;28;20164;-74
2021/12/13 09:44:29;;;;;;;5.65;1.80;;;;;;;-1.97;74.09;98826.56;5034969;28;20059;-72
2021/12/13 09:47:07;;;;;;;7.50;2.80;;;;;;;-1.97;73.56;98849.59;5031935;28;20067;-70
2021/12/13 09:49:41;;;;;;;9.55;1.65;;;;;;;-1.99;73.16;98856.41;5033350;28;20264;-68
2021/12/13 09:52:15;;;;;;;2.92;1.40;;;;;;;-1.99;72.77;98856.41;5034320;28;20256;-71
2021/12/13 09:54:50;;;;;;;9.27;1.80;;;;;;;-2.00;73.45;98862.34;5034275;28;20209;-73
2021/12/13 09:57:23;;;;;;;5.00;1.55;;;;;;;-2.27;73.24;98840.72;5034494;28;20287;-74
2021/12/13 10:00:11;;;;;;;6.10;1.50;;;;;;;-2.10;73.04;98881.84;5035708;28;20323;-74
2021/12/13 10:02:46;;;;;;;4.45;1.67;;;;;;;-2.11;73.31;98897.22;5034653;28;20049;-70
2021/12/13 10:05:21;;;;;;;4.82;1.70;;;;;;;-2.17;73.50;98898.84;5034443;28;20096;-74
2021/12/13 10:07:55;;;;;;;5.88;1.60;;;;;;;-2.20;73.76;98898.81;5035175;28;20363;-73
2021/12/13 10:10:32;;;;;;;4.70;1.77;;;;;;;-2.24;72.54;98901.31;5035117;28;20889;-73
2021/12/13 10:13:06;;;;;;;4.70;1.52;;;;;;;-2.22;73.08;98915.84;5035209;28;20045;-71
2021/12/13 10:15:41;;;;;;;3.47;1.23;;;;;;;-2.21;72.60;98917.56;5035434;28;20155;-74
2021/12/13 10:18:15;;;;;;;4.28;1.52;;;;;;;-2.21;72.08;98932.91;5035454;28;20049;-70
2021/12/13 10:20:48;;;;;;;6.68;1.95;;;;;;;-2.22;72.06;98935.44;5034858;28;20121;-73
2021/12/13 10:23:22;;;;;;;7.05;1.73;;;;;;;-2.30;71.15;98927.66;5035004;28;20049;-70
2021/12/13 10:25:56;;;;;;;3.95;1.83;;;;;;;-2.27;71.56;98943.06;5034140;28;20116;-74
2021/12/13 10:28:31;;;;;;;3.38;1.55;;;;;;;-2.42;71.27;98942.84;5034980;28;20049;-72
2021/12/13 10:31:08;;;;;;;6.40;1.70;;;;;;;-2.35;71.86;98954.88;5033783;28;20077;-73
2021/12/13 10:33:40;;;;;;;1.70;1.25;;;;;;;-2.35;71.08;98954.88;5034081;28;20056;-73
2021/12/13 10:36:11;;;;;;;4.07;1.60;;;;;;;-2.32;71.37;98959.19;5034308;28;20060;-71
2021/12/13 10:38:46;;;;;;;4.07;2.13;;;;;;;-2.39;71.23;98953.13;5034732;28;20084;-70
2021/12/13 10:41:24;;;;;;;6.50;2.03;;;;;;;-2.33;70.02;98968.56;5034807;28;20773;-70
2021/12/13 10:43:58;;;;;;;4.88;1.63;;;;;;;-2.32;71.35;98967.75;5034730;28;20068;-71
2021/12/13 10:46:36;;;;;;;7.65;1.92;;;;;;;-2.38;71.00;98975.31;5034365;28;20279;-72
2021/12/13 10:49:10;;;;;;;6.07;1.33;;;;;;;-2.34;70.81;98979.63;5034466;28;20080;-70
2021/12/13 10:51:54;;;;;;;9.48;1.92;;;;;;;-2.33;71.26;98988.16;5034646;28;20328;-70
2021/12/13 10:54:30;;;;;;;3.28;1.42;;;;;;;-2.38;71.16;98985.53;5034369;28;20080;-72
2021/12/13 10:57:08;;;;;;;6.90;1.90;;;;;;;-2.36;70.96;99006.91;5034287;28;20048;-74
2021/12/13 10:59:44;;;;;;;4.43;1.98;;;;;;;-2.36;71.20;99014.56;5034448;28;20056;-67
2021/12/13 11:02:21;;;;;;;9.30;2.10;;;;;;;-2.36;71.41;99021.41;5033028;28;20050;-71
2021/12/13 11:04:56;;;;;;;7.90;1.83;;;;;;;-2.40;71.85;99033.25;5033940;28;20060;-72
2021/12/13 11:07:27;;;;;;;7.38;1.80;;;;;;;-2.46;71.86;99023.78;5034247;28;20057;-72
2021/12/13 11:09:59;;;;;;;9.65;1.85;;;;;;;-2.42;71.98;99055.38;5033294;28;20068;-72
2021/12/13 11:12:38;;;;;;;4.53;2.00;;;;;;;-2.44;71.11;99057.09;5034318;28;20073;-71
2021/12/13 11:15:13;;;;;;;6.97;1.85;;;;;;;-2.43;71.16;99066.47;5034363;28;20049;-70
2021/12/13 11:17:46;;;;;;;10.15;1.50;;;;;;;-2.44;71.58;99067.31;5034596;28;20055;-70
2021/12/13 11:20:21;;;;;;;2.65;1.25;;;;;;;-2.50;71.06;99067.19;5034170;28;20049;-70
2021/12/13 11:22:52;;;;;;;6.22;2.00;;;;;;;-2.44;70.88;99073.28;5034078;28;20379;-71
2021/12/13 11:25:27;;;;;;;5.25;1.50;;;;;;;-2.40;71.04;99084.41;5034093;28;20376;-70
2021/12/13 11:27:59;;;;;;;5.75;1.52;;;;;;;-2.56;70.81;99083.31;5034090;28;20108;-70
2021/12/13 11:30:35;;;;;;;4.28;1.40;;;;;;;-2.43;69.94;99079.25;5033065;28;20057;-71
2021/12/13 11:33:42;;;;;;;6.13;1.80;;;;;;;-2.44;69.79;99105.69;5026303;28;20045;-70
2021/12/13 11:36:58;;;;;;;6.50;1.67;;;;;;;-2.52;70.04;99107.22;5017277;28;20312;-70
2021/12/13 11:39:48;;;;;;;7.90;2.40;;;;;;;-2.46;70.89;99115.03;5028427;28;20079;-70
2021/12/13 11:42:47;;;;;;;11.95;2.33;;;;;;;-2.46;71.79;99127.81;5037727;28;20109;-69
2021/12/13 11:45:50;;;;;;;11.55;2.20;;;;;;;-2.53;70.62;99141.31;5037480;28;20060;-70
2021/12/13 11:48:43;;;;;;;6.25;1.70;;;;;;;-2.80;70.77;99104.19;5013170;28;20052;-70
2021/12/13 11:51:46;;;;;;;6.68;1.85;;;;;;;-2.70;70.90;99144.41;5035125;28;20229;-70
2021/12/13 11:55:15;;;;;;;7.10;2.58;;;;;;;-2.65;71.70;99170.94;5036889;28;20045;-70
2021/12/13 11:58:18;;;;;;;9.85;3.35;;;;;;;-2.97;71.66;99142.22;5032085;28;20076;-70
2021/12/13 12:01:24;;;;;;;8.20;2.50;;;;;;;-2.79;72.95;99167.28;5002043;28;20056;-70
2021/12/13 12:04:28;;;;;;;9.88;2.72;;;;;;;-2.78;73.14;99194.56;5033833;28;20103;-70
2021/12/13 12:07:28;;;;;;;7.97;2.80;;;;;;;-2.85;72.44;99200.38;5009542;28;20083;-70
2021/12/13 12:10:09;;;;;;;;;;;;;;;-2.83;70.86;99206.38;5031686;28;20053;-71
2021/12/13 12:13:09;;;;;;;7.65;2.08;;;;;;;-2.85;71.95;99213.16;5033488;28;20123;-71
2021/12/13 12:15:42;;;;;;;9.45;2.08;;;;;;;-2.90;72.57;99225.84;5031381;28;20116;-70
2021/12/13 12:18:15;;;;;;;7.93;2.03;;;;;;;-3.00;72.93;99226.47;5037478;28;20051;-70
2021/12/13 12:20:49;;;;;;;10.82;2.67;;;;;;;-3.00;73.00;99243.50;5038451;28;20068;-69
2021/12/13 12:23:31;;;;;;;4.13;2.10;;;;;;;-3.09;72.77;99234.81;5041116;28;20104;-69
2021/12/13 12:26:06;;;;;;;5.97;1.83;;;;;;;-3.11;73.55;99236.47;5041019;28;20050;-70
2021/12/13 12:28:38;;;;;;;6.07;2.00;;;;;;;-3.11;73.68;99246.69;5041007;28;20057;-70